sensor_id;sensor_type;location;lat;lon;timestamp;temperature;humidity
76040;SHT30;64736;50.462;4.850;2023-03-01T00:01:02;-0.29;71.62
76040;SHT30;64736;50.462;4.850;2023-03-01T00:03:28;-0.25;71.57
76040;SHT30;64736;50.462;4.850;2023-03-01T00:05:53;-0.22;71.36
76040;SHT30;64736;50.462;4.850;2023-03-01T00:08:19;-0.36;71.33
76040;SHT30;64736;50.462;4.850;2023-03-01T00:10:45;-0.43;71.83
76040;SHT30;64736;50.462;4.850;2023-03-01T00:13:10;-0.44;72.04
76040;SHT30;64736;50.462;4.850;2023-03-01T00:15:40;-0.30;71.56
76040;SHT30;64736;50.462;4.850;2023-03-01T00:18:07;-0.41;71.77
76040;SHT30;64736;50.462;4.850;2023-03-01T00:20:34;-0.39;71.60
76040;SHT30;64736;50.462;4.850;2023-03-01T00:23:00;-0.68;72.30
76040;SHT30;64736;50.462;4.850;2023-03-01T00:25:25;-0.43;72.27
76040;SHT30;64736;50.462;4.850;2023-03-01T00:27:51;-0.39;71.66
76040;SHT30;64736;50.462;4.850;2023-03-01T00:30:17;-0.32;71.74
76040;SHT30;64736;50.462;4.850;2023-03-01T00:32:42;-0.39;71.72
76040;SHT30;64736;50.462;4.850;2023-03-01T00:35:08;-0.71;72.32
76040;SHT30;64736;50.462;4.850;2023-03-01T00:37:34;-0.56;72.07
76040;SHT30;64736;50.462;4.850;2023-03-01T00:39:59;-0.89;72.85
76040;SHT30;64736;50.462;4.850;2023-03-01T00:42:25;-0.88;73.13
76040;SHT30;64736;50.462;4.850;2023-03-01T00:44:51;-0.64;73.09
76040;SHT30;64736;50.462;4.850;2023-03-01T00:47:16;-0.74;72.91
76040;SHT30;64736;50.462;4.850;2023-03-01T00:49:42;-0.63;73.02
76040;SHT30;64736;50.462;4.850;2023-03-01T00:52:08;-0.61;72.79
76040;SHT30;64736;50.462;4.850;2023-03-01T00:54:34;-0.46;72.66
76040;SHT30;64736;50.462;4.850;2023-03-01T00:56:59;-0.52;72.48
76040;SHT30;64736;50.462;4.850;2023-03-01T00:59:25;-0.67;72.28
76040;SHT30;64736;50.462;4.850;2023-03-01T01:01:51;-0.84;72.93
76040;SHT30;64736;50.462;4.850;2023-03-01T01:04:16;-1.02;73.52
76040;SHT30;64736;50.462;4.850;2023-03-01T01:06:44;-0.87;73.81
76040;SHT30;64736;50.462;4.850;2023-03-01T01:09:13;-0.60;72.94
76040;SHT30;64736;50.462;4.850;2023-03-01T01:11:44;-0.64;72.85
76040;SHT30;64736;50.462;4.850;2023-03-01T01:14:11;-0.89;73.09
76040;SHT30;64736;50.462;4.850;2023-03-01T01:16:36;-0.98;73.70
76040;SHT30;64736;50.462;4.850;2023-03-01T01:19:02;-0.88;74.16
76040;SHT30;64736;50.462;4.850;2023-03-01T01:21:28;-0.80;73.45
76040;SHT30;64736;50.462;4.850;2023-03-01T01:23:54;-1.05;73.73
76040;SHT30;64736;50.462;4.850;2023-03-01T01:26:24;-0.80;73.78
76040;SHT30;64736;50.462;4.850;2023-03-01T01:28:50;-0.71;73.08
76040;SHT30;64736;50.462;4.850;2023-03-01T01:31:16;-0.84;73.30
76040;SHT30;64736;50.462;4.850;2023-03-01T01:33:43;-1.05;73.86
76040;SHT30;64736;50.462;4.850;2023-03-01T01:36:09;-0.97;73.99
76040;SHT30;64736;50.462;4.850;2023-03-01T01:38:37;-0.99;73.68
76040;SHT30;64736;50.462;4.850;2023-03-01T01:41:03;-0.85;73.87
76040;SHT30;64736;50.462;4.850;2023-03-01T01:43:34;-0.91;73.87
76040;SHT30;64736;50.462;4.850;2023-03-01T01:46:06;-1.25;74.34
76040;SHT30;64736;50.462;4.850;2023-03-01T01:48:46;-1.18;74.75
76040;SHT30;64736;50.462;4.850;2023-03-01T01:51:21;-1.29;75.03
76040;SHT30;64736;50.462;4.850;2023-03-01T01:53:53;-1.11;74.91
76040;SHT30;64736;50.462;4.850;2023-03-01T01:56:21;-0.97;74.41
76040;SHT30;64736;50.462;4.850;2023-03-01T01:58:49;-1.01;74.07
76040;SHT30;64736;50.462;4.850;2023-03-01T02:01:16;-1.20;74.28
76040;SHT30;64736;50.462;4.850;2023-03-01T02:03:43;-1.12;74.57
76040;SHT30;64736;50.462;4.850;2023-03-01T02:08:40;-1.13;75.19
76040;SHT30;64736;50.462;4.850;2023-03-01T02:11:08;-1.06;73.99
76040;SHT30;64736;50.462;4.850;2023-03-01T02:13:35;-1.33;74.19
76040;SHT30;64736;50.462;4.850;2023-03-01T02:16:19;-1.11;73.60
76040;SHT30;64736;50.462;4.850;2023-03-01T02:18:45;-1.16;74.45
76040;SHT30;64736;50.462;4.850;2023-03-01T02:24:28;-1.13;74.67
76040;SHT30;64736;50.462;4.850;2023-03-01T02:26:58;-1.05;73.61
76040;SHT30;64736;50.462;4.850;2023-03-01T02:29:25;-1.33;74.76
76040;SHT30;64736;50.462;4.850;2023-03-01T02:31:54;-1.32;75.28
76040;SHT30;64736;50.462;4.850;2023-03-01T02:34:23;-1.42;75.10
76040;SHT30;64736;50.462;4.850;2023-03-01T02:37:01;-1.39;75.46
76040;SHT30;64736;50.462;4.850;2023-03-01T02:39:38;-1.50;75.57
76040;SHT30;64736;50.462;4.850;2023-03-01T02:42:11;-1.42;75.85
76040;SHT30;64736;50.462;4.850;2023-03-01T02:44:38;-1.62;75.84
76040;SHT30;64736;50.462;4.850;2023-03-01T02:47:05;-1.73;76.29
76040;SHT30;64736;50.462;4.850;2023-03-01T02:49:34;-1.66;76.12
76040;SHT30;64736;50.462;4.850;2023-03-01T02:57:23;-1.73;76.50
76040;SHT30;64736;50.462;4.850;2023-03-01T02:59:51;-1.84;76.82
76040;SHT30;64736;50.462;4.850;2023-03-01T03:02:23;-1.93;76.67
76040;SHT30;64736;50.462;4.850;2023-03-01T03:07:28;-1.93;77.42
76040;SHT30;64736;50.462;4.850;2023-03-01T03:09:54;-1.84;76.35
76040;SHT30;64736;50.462;4.850;2023-03-01T03:12:20;-2.05;77.04
76040;SHT30;64736;50.462;4.850;2023-03-01T03:14:46;-1.98;77.45
76040;SHT30;64736;50.462;4.850;2023-03-01T03:17:11;-1.84;77.33
76040;SHT30;64736;50.462;4.850;2023-03-01T03:19:37;-1.73;76.44
76040;SHT30;64736;50.462;4.850;2023-03-01T03:22:03;-1.98;76.92
76040;SHT30;64736;50.462;4.850;2023-03-01T03:24:28;-1.93;76.54
76040;SHT30;64736;50.462;4.850;2023-03-01T03:27:06;-1.98;76.41
76040;SHT30;64736;50.462;4.850;2023-03-01T03:29:32;-1.99;77.48
76040;SHT30;64736;50.462;4.850;2023-03-01T03:31:59;-2.01;77.35
76040;SHT30;64736;50.462;4.850;2023-03-01T03:34:25;-2.11;77.82
76040;SHT30;64736;50.462;4.850;2023-03-01T03:36:54;-2.11;77.65
76040;SHT30;64736;50.462;4.850;2023-03-01T03:39:26;-2.11;78.13
76040;SHT30;64736;50.462;4.850;2023-03-01T03:42:00;-2.11;77.05
76040;SHT30;64736;50.462;4.850;2023-03-01T03:44:26;-1.73;77.27
76040;SHT30;64736;50.462;4.850;2023-03-01T03:46:52;-1.74;76.28
76040;SHT30;64736;50.462;4.850;2023-03-01T03:49:18;-1.64;75.88
76040;SHT30;64736;50.462;4.850;2023-03-01T03:51:45;-1.60;75.61
76040;SHT30;64736;50.462;4.850;2023-03-01T03:54:11;-1.80;76.06
76040;SHT30;64736;50.462;4.850;2023-03-01T03:56:37;-1.88;76.87
76040;SHT30;64736;50.462;4.850;2023-03-01T03:59:03;-1.99;76.42
76040;SHT30;64736;50.462;4.850;2023-03-01T04:01:28;-2.11;76.96
76040;SHT30;64736;50.462;4.850;2023-03-01T04:03:54;-2.01;77.60
76040;SHT30;64736;50.462;4.850;2023-03-01T04:06:20;-1.85;76.11
76040;SHT30;64736;50.462;4.850;2023-03-01T04:08:46;-1.93;76.30
76040;SHT30;64736;50.462;4.850;2023-03-01T04:11:12;-2.02;77.31
76040;SHT30;64736;50.462;4.850;2023-03-01T04:13:56;-2.05;77.69
76040;SHT30;64736;50.462;4.850;2023-03-01T04:16:23;-1.98;77.96
76040;SHT30;64736;50.462;4.850;2023-03-01T04:18:49;-1.87;77.36
76040;SHT30;64736;50.462;4.850;2023-03-01T04:21:15;-1.80;76.94
76040;SHT30;64736;50.462;4.850;2023-03-01T04:23:41;-2.06;77.10
76040;SHT30;64736;50.462;4.850;2023-03-01T04:26:07;-2.19;77.91
76040;SHT30;64736;50.462;4.850;2023-03-01T04:28:39;-1.98;77.87
76040;SHT30;64736;50.462;4.850;2023-03-01T04:31:11;-1.70;76.43
76040;SHT30;64736;50.462;4.850;2023-03-01T04:33:49;-1.83;75.83
76040;SHT30;64736;50.462;4.850;2023-03-01T04:36:22;-2.09;77.23
76040;SHT30;64736;50.462;4.850;2023-03-01T04:38:48;-2.32;77.75
76040;SHT30;64736;50.462;4.850;2023-03-01T04:41:16;-2.57;78.41
76040;SHT30;64736;50.462;4.850;2023-03-01T04:43:43;-2.32;78.04
76040;SHT30;64736;50.462;4.850;2023-03-01T04:46:12;-2.41;78.37
76040;SHT30;64736;50.462;4.850;2023-03-01T04:48:41;-2.33;78.73
76040;SHT30;64736;50.462;4.850;2023-03-01T04:51:07;-2.25;78.35
76040;SHT30;64736;50.462;4.850;2023-03-01T04:53:34;-2.49;78.36
76040;SHT30;64736;50.462;4.850;2023-03-01T04:56:01;-2.53;79.00
76040;SHT30;64736;50.462;4.850;2023-03-01T04:58:28;-2.41;79.15
76040;SHT30;64736;50.462;4.850;2023-03-01T05:00:54;-2.23;78.46
76040;SHT30;64736;50.462;4.850;2023-03-01T05:03:20;-2.42;78.51
76040;SHT30;64736;50.462;4.850;2023-03-01T05:05:49;-2.52;78.86
76040;SHT30;64736;50.462;4.850;2023-03-01T05:08:15;-2.57;79.13
76040;SHT30;64736;50.462;4.850;2023-03-01T05:10:52;-2.08;77.99
76040;SHT30;64736;50.462;4.850;2023-03-01T05:13:19;-2.19;77.64
76040;SHT30;64736;50.462;4.850;2023-03-01T05:15:54;-2.63;78.98
76040;SHT30;64736;50.462;4.850;2023-03-01T05:18:21;-2.29;79.39
76040;SHT30;64736;50.462;4.850;2023-03-01T05:20:46;-2.05;77.72
76040;SHT30;64736;50.462;4.850;2023-03-01T05:23:12;-2.05;77.09
76040;SHT30;64736;50.462;4.850;2023-03-01T05:25:38;-2.09;76.66
76040;SHT30;64736;50.462;4.850;2023-03-01T05:28:09;-2.08;76.90
76040;SHT30;64736;50.462;4.850;2023-03-01T05:30:38;-2.14;76.88
76040;SHT30;64736;50.462;4.850;2023-03-01T05:33:08;-2.35;77.50
76040;SHT30;64736;50.462;4.850;2023-03-01T05:35:42;-2.32;78.27
76040;SHT30;64736;50.462;4.850;2023-03-01T05:38:09;-2.49;78.64
76040;SHT30;64736;50.462;4.850;2023-03-01T05:40:46;-2.23;77.62
76040;SHT30;64736;50.462;4.850;2023-03-01T05:43:13;-2.43;77.56
76040;SHT30;64736;50.462;4.850;2023-03-01T05:45:42;-2.42;78.08
76040;SHT30;64736;50.462;4.850;2023-03-01T05:48:09;-2.60;78.76
76040;SHT30;64736;50.462;4.850;2023-03-01T05:50:38;-2.63;79.17
76040;SHT30;64736;50.462;4.850;2023-03-01T05:53:10;-2.73;79.72
76040;SHT30;64736;50.462;4.850;2023-03-01T05:55:37;-2.71;79.98
76040;SHT30;64736;50.462;4.850;2023-03-01T05:58:09;-2.62;79.46
76040;SHT30;64736;50.462;4.850;2023-03-01T06:00:35;-2.81;79.79
76040;SHT30;64736;50.462;4.850;2023-03-01T06:03:02;-2.77;79.68
76040;SHT30;64736;50.462;4.850;2023-03-01T06:05:28;-2.94;80.15
76040;SHT30;64736;50.462;4.850;2023-03-01T06:07:55;-2.45;79.58
76040;SHT30;64736;50.462;4.850;2023-03-01T06:10:22;-2.35;78.15
76040;SHT30;64736;50.462;4.850;2023-03-01T06:12:48;-2.46;77.78
76040;SHT30;64736;50.462;4.850;2023-03-01T06:15:15;-2.90;79.36
76040;SHT30;64736;50.462;4.850;2023-03-01T06:17:43;-2.70;79.79
76040;SHT30;64736;50.462;4.850;2023-03-01T06:20:27;-2.42;78.56
76040;SHT30;64736;50.462;4.850;2023-03-01T06:22:53;-2.49;77.96
76040;SHT30;64736;50.462;4.850;2023-03-01T06:25:21;-2.54;78.88
76040;SHT30;64736;50.462;4.850;2023-03-01T06:27:48;-2.46;77.83
76040;SHT30;64736;50.462;4.850;2023-03-01T06:30:18;-2.56;78.35
76040;SHT30;64736;50.462;4.850;2023-03-01T06:32:44;-2.71;79.06
76040;SHT30;64736;50.462;4.850;2023-03-01T06:35:12;-2.62;79.10
76040;SHT30;64736;50.462;4.850;2023-03-01T06:37:40;-2.53;78.40
76040;SHT30;64736;50.462;4.850;2023-03-01T06:40:07;-2.70;78.08
76040;SHT30;64736;50.462;4.850;2023-03-01T06:42:40;-2.54;78.57
76040;SHT30;64736;50.462;4.850;2023-03-01T06:45:08;-2.66;78.00
76040;SHT30;64736;50.462;4.850;2023-03-01T06:47:34;-2.80;78.59
76040;SHT30;64736;50.462;4.850;2023-03-01T06:50:00;-2.88;79.78
76040;SHT30;64736;50.462;4.850;2023-03-01T06:52:26;-2.63;79.70
76040;SHT30;64736;50.462;4.850;2023-03-01T06:54:52;-2.74;79.04
76040;SHT30;64736;50.462;4.850;2023-03-01T06:57:18;-2.80;79.51
76040;SHT30;64736;50.462;4.850;2023-03-01T06:59:44;-2.56;78.72
76040;SHT30;64736;50.462;4.850;2023-03-01T07:02:10;-2.52;78.67
76040;SHT30;64736;50.462;4.850;2023-03-01T07:04:37;-3.00;79.83
76040;SHT30;64736;50.462;4.850;2023-03-01T07:07:03;-3.00;80.50
76040;SHT30;64736;50.462;4.850;2023-03-01T07:09:29;-2.70;80.67
76040;SHT30;64736;50.462;4.850;2023-03-01T07:11:55;-2.80;80.46
76040;SHT30;64736;50.462;4.850;2023-03-01T07:14:21;-2.87;80.64
76040;SHT30;64736;50.462;4.850;2023-03-01T07:16:50;-2.74;80.44
76040;SHT30;64736;50.462;4.850;2023-03-01T07:19:16;-2.67;80.17
76040;SHT30;64736;50.462;4.850;2023-03-01T07:21:42;-2.56;79.98
76040;SHT30;64736;50.462;4.850;2023-03-01T07:24:08;-2.62;79.91
76040;SHT30;64736;50.462;4.850;2023-03-01T07:26:36;-2.36;79.87
76040;SHT30;64736;50.462;4.850;2023-03-01T07:29:03;-2.46;79.83
76040;SHT30;64736;50.462;4.850;2023-03-01T07:31:30;-2.35;79.68
76040;SHT30;64736;50.462;4.850;2023-03-01T07:33:56;-2.38;79.57
76040;SHT30;64736;50.462;4.850;2023-03-01T07:36:22;-2.43;79.57
76040;SHT30;64736;50.462;4.850;2023-03-01T07:38:48;-2.46;79.51
76040;SHT30;64736;50.462;4.850;2023-03-01T07:41:14;-2.28;79.44
76040;SHT30;64736;50.462;4.850;2023-03-01T07:43:39;-2.02;78.73
76040;SHT30;64736;50.462;4.850;2023-03-01T07:46:05;-1.99;78.31
76040;SHT30;64736;50.462;4.850;2023-03-01T07:48:32;-2.28;78.77
76040;SHT30;64736;50.462;4.850;2023-03-01T07:51:00;-2.38;80.02
76040;SHT30;64736;50.462;4.850;2023-03-01T07:53:26;-2.33;79.68
76040;SHT30;64736;50.462;4.850;2023-03-01T07:56:03;-2.23;79.25
76040;SHT30;64736;50.462;4.850;2023-03-01T07:58:29;-2.08;78.81
76040;SHT30;64736;50.462;4.850;2023-03-01T08:00:55;-2.19;79.58
76040;SHT30;64736;50.462;4.850;2023-03-01T08:03:21;-2.05;79.17
76040;SHT30;64736;50.462;4.850;2023-03-01T08:05:46;-1.97;78.88
76040;SHT30;64736;50.462;4.850;2023-03-01T08:08:12;-1.99;78.41
76040;SHT30;64736;50.462;4.850;2023-03-01T08:10:38;-1.85;78.75
76040;SHT30;64736;50.462;4.850;2023-03-01T08:13:03;-1.88;78.35
76040;SHT30;64736;50.462;4.850;2023-03-01T08:15:29;-1.85;78.28
76040;SHT30;64736;50.462;4.850;2023-03-01T08:17:55;-1.74;77.25
76040;SHT30;64736;50.462;4.850;2023-03-01T08:20:20;-1.62;76.99
76040;SHT30;64736;50.462;4.850;2023-03-01T08:22:46;-1.56;77.08
76040;SHT30;64736;50.462;4.850;2023-03-01T08:25:12;-1.49;76.52
76040;SHT30;64736;50.462;4.850;2023-03-01T08:27:38;-1.46;76.07
76040;SHT30;64736;50.462;4.850;2023-03-01T08:30:04;-1.25;76.30
76040;SHT30;64736;50.462;4.850;2023-03-01T08:32:36;-1.35;76.33
76040;SHT30;64736;50.462;4.850;2023-03-01T08:35:02;-1.19;76.30
76040;SHT30;64736;50.462;4.850;2023-03-01T08:37:28;-1.18;75.63
76040;SHT30;64736;50.462;4.850;2023-03-01T08:39:56;-1.24;75.52
76040;SHT30;64736;50.462;4.850;2023-03-01T08:42:22;-1.22;75.62
76040;SHT30;64736;50.462;4.850;2023-03-01T08:44:48;-1.15;75.46
76040;SHT30;64736;50.462;4.850;2023-03-01T08:47:13;-0.97;75.70
76040;SHT30;64736;50.462;4.850;2023-03-01T08:49:39;-0.99;75.90
76040;SHT30;64736;50.462;4.850;2023-03-01T08:52:05;-0.89;75.34
76040;SHT30;64736;50.462;4.850;2023-03-01T08:54:31;-0.91;74.46
76040;SHT30;64736;50.462;4.850;2023-03-01T08:56:56;-0.83;74.39
76040;SHT30;64736;50.462;4.850;2023-03-01T08:59:25;-0.76;74.30
76040;SHT30;64736;50.462;4.850;2023-03-01T09:01:50;-0.61;73.89
76040;SHT30;64736;50.462;4.850;2023-03-01T09:04:16;-0.56;73.70
76040;SHT30;64736;50.462;4.850;2023-03-01T09:06:42;-0.36;73.41
76040;SHT30;64736;50.462;4.850;2023-03-01T09:09:16;-0.32;72.87
76040;SHT30;64736;50.462;4.850;2023-03-01T09:11:43;-0.33;72.99
76040;SHT30;64736;50.462;4.850;2023-03-01T09:14:12;-0.18;72.48
76040;SHT30;64736;50.462;4.850;2023-03-01T09:16:38;-0.05;72.21
76040;SHT30;64736;50.462;4.850;2023-03-01T09:19:05;-0.05;72.14
76040;SHT30;64736;50.462;4.850;2023-03-01T09:21:31;0.08;71.77
76040;SHT30;64736;50.462;4.850;2023-03-01T09:23:57;0.18;71.39
76040;SHT30;64736;50.462;4.850;2023-03-01T09:26:24;0.32;70.48
76040;SHT30;64736;50.462;4.850;2023-03-01T09:28:52;0.42;70.58
76040;SHT30;64736;50.462;4.850;2023-03-01T09:31:23;0.59;70.00
76040;SHT30;64736;50.462;4.850;2023-03-01T09:33:50;0.50;67.85
76040;SHT30;64736;50.462;4.850;2023-03-01T09:36:19;0.70;67.80
76040;SHT30;64736;50.462;4.850;2023-03-01T09:38:46;1.04;67.10
76040;SHT30;64736;50.462;4.850;2023-03-01T09:46:50;0.92;66.58
76040;SHT30;64736;50.462;4.850;2023-03-01T09:49:37;1.12;65.69
76040;SHT30;64736;50.462;4.850;2023-03-01T09:54:54;1.21;65.04
76040;SHT30;64736;50.462;4.850;2023-03-01T10:02:50;1.91;62.97
76040;SHT30;64736;50.462;4.850;2023-03-01T10:10:49;2.31;62.78
76040;SHT30;64736;50.462;4.850;2023-03-01T10:13:23;2.60;62.51
76040;SHT30;64736;50.462;4.850;2023-03-01T10:16:02;2.77;62.35
76040;SHT30;64736;50.462;4.850;2023-03-01T10:18:31;2.89;62.62
76040;SHT30;64736;50.462;4.850;2023-03-01T10:21:00;3.08;62.09
76040;SHT30;64736;50.462;4.850;2023-03-01T10:23:27;3.15;60.93
76040;SHT30;64736;50.462;4.850;2023-03-01T10:28:27;3.34;61.81
76040;SHT30;64736;50.462;4.850;2023-03-01T10:30:54;3.00;61.69
76040;SHT30;64736;50.462;4.850;2023-03-01T10:33:25;2.98;61.55
76040;SHT30;64736;50.462;4.850;2023-03-01T10:35:52;3.62;60.33
76040;SHT30;64736;50.462;4.850;2023-03-01T10:38:19;3.60;59.74
76040;SHT30;64736;50.462;4.850;2023-03-01T10:41:05;3.45;61.27
76040;SHT30;64736;50.462;4.850;2023-03-01T10:43:48;3.43;60.41
76040;SHT30;64736;50.462;4.850;2023-03-01T10:46:30;3.27;60.33
76040;SHT30;64736;50.462;4.850;2023-03-01T10:49:21;3.54;59.10
76040;SHT30;64736;50.462;4.850;2023-03-01T10:51:50;3.40;59.96
76040;SHT30;64736;50.462;4.850;2023-03-01T10:54:29;3.14;60.17
76040;SHT30;64736;50.462;4.850;2023-03-01T10:57:00;3.22;60.67
76040;SHT30;64736;50.462;4.850;2023-03-01T10:59:32;3.18;60.35
76040;SHT30;64736;50.462;4.850;2023-03-01T11:02:22;3.76;59.48
76040;SHT30;64736;50.462;4.850;2023-03-01T11:07:27;3.72;59.48
76040;SHT30;64736;50.462;4.850;2023-03-01T11:09:53;3.91;59.43
76040;SHT30;64736;50.462;4.850;2023-03-01T11:12:20;4.49;57.59
76040;SHT30;64736;50.462;4.850;2023-03-01T11:14:56;4.08;58.98
76040;SHT30;64736;50.462;4.850;2023-03-01T11:17:31;4.68;57.32
76040;SHT30;64736;50.462;4.850;2023-03-01T11:23:04;4.82;56.45
76040;SHT30;64736;50.462;4.850;2023-03-01T11:25:43;4.75;55.91
76040;SHT30;64736;50.462;4.850;2023-03-01T11:28:15;5.48;55.00
76040;SHT30;64736;50.462;4.850;2023-03-01T11:30:47;4.55;56.46
76040;SHT30;64736;50.462;4.850;2023-03-01T11:33:34;4.87;56.05
76040;SHT30;64736;50.462;4.850;2023-03-01T11:38:35;5.47;54.51
76040;SHT30;64736;50.462;4.850;2023-03-01T11:41:16;5.62;53.60
76040;SHT30;64736;50.462;4.850;2023-03-01T11:46:31;6.48;52.45
76040;SHT30;64736;50.462;4.850;2023-03-01T12:00:18;5.30;53.89
76040;SHT30;64736;50.462;4.850;2023-03-01T12:03:13;5.95;53.74
76040;SHT30;64736;50.462;4.850;2023-03-01T12:11:18;5.85;53.64
76040;SHT30;64736;50.462;4.850;2023-03-01T12:14:13;5.80;53.03
76040;SHT30;64736;50.462;4.850;2023-03-01T12:22:25;6.68;52.34
76040;SHT30;64736;50.462;4.850;2023-03-01T12:27:48;6.54;51.86
76040;SHT30;64736;50.462;4.850;2023-03-01T12:30:39;5.45;52.49
76040;SHT30;64736;50.462;4.850;2023-03-01T12:38:49;6.16;50.30
76040;SHT30;64736;50.462;4.850;2023-03-01T12:41:45;6.26;50.20
76040;SHT30;64736;50.462;4.850;2023-03-01T12:47:36;6.09;51.04
76040;SHT30;64736;50.462;4.850;2023-03-01T12:50:26;6.06;49.76
76040;SHT30;64736;50.462;4.850;2023-03-01T12:52:56;6.34;49.38
76040;SHT30;64736;50.462;4.850;2023-03-01T12:55:41;6.27;50.05
76040;SHT30;64736;50.462;4.850;2023-03-01T13:01:26;7.06;49.29
76040;SHT30;64736;50.462;4.850;2023-03-01T13:12:49;6.78;50.87
76040;SHT30;64736;50.462;4.850;2023-03-01T13:17:55;6.30;50.77
76040;SHT30;64736;50.462;4.850;2023-03-01T13:20:44;6.41;50.70
76040;SHT30;64736;50.462;4.850;2023-03-01T13:23:37;6.17;49.88
76040;SHT30;64736;50.462;4.850;2023-03-01T13:26:17;6.34;50.05
76040;SHT30;64736;50.462;4.850;2023-03-01T13:28:58;6.84;47.61
76040;SHT30;64736;50.462;4.850;2023-03-01T13:33:56;6.79;47.88
76040;SHT30;64736;50.462;4.850;2023-03-01T13:39:46;6.61;47.93
76040;SHT30;64736;50.462;4.850;2023-03-01T13:44:57;6.86;47.40
76040;SHT30;64736;50.462;4.850;2023-03-01T13:47:23;6.75;47.48
76040;SHT30;64736;50.462;4.850;2023-03-01T13:49:58;6.54;48.34
76040;SHT30;64736;50.462;4.850;2023-03-01T13:55:04;8.46;45.44
76040;SHT30;64736;50.462;4.850;2023-03-01T13:57:36;6.85;47.95
76040;SHT30;64736;50.462;4.850;2023-03-01T14:00:06;6.96;47.51
76040;SHT30;64736;50.462;4.850;2023-03-01T14:02:32;7.10;48.08
76040;SHT30;64736;50.462;4.850;2023-03-01T14:05:00;6.59;48.51
76040;SHT30;64736;50.462;4.850;2023-03-01T14:07:27;7.02;47.78
76040;SHT30;64736;50.462;4.850;2023-03-01T14:10:00;6.72;47.72
76040;SHT30;64736;50.462;4.850;2023-03-01T14:20:14;6.72;46.77
76040;SHT30;64736;50.462;4.850;2023-03-01T14:22:43;6.61;47.04
76040;SHT30;64736;50.462;4.850;2023-03-01T14:25:25;6.69;46.53
76040;SHT30;64736;50.462;4.850;2023-03-01T14:28:18;6.45;46.91
76040;SHT30;64736;50.462;4.850;2023-03-01T14:30:50;6.84;47.19
76040;SHT30;64736;50.462;4.850;2023-03-01T14:36:02;7.65;46.04
76040;SHT30;64736;50.462;4.850;2023-03-01T14:38:49;6.75;46.88
76040;SHT30;64736;50.462;4.850;2023-03-01T14:41:24;6.64;47.18
76040;SHT30;64736;50.462;4.850;2023-03-01T14:43:57;7.30;46.16
76040;SHT30;64736;50.462;4.850;2023-03-01T14:49:03;6.88;46.96
76040;SHT30;64736;50.462;4.850;2023-03-01T14:51:38;6.68;46.98
76040;SHT30;64736;50.462;4.850;2023-03-01T14:54:29;6.88;46.50
76040;SHT30;64736;50.462;4.850;2023-03-01T14:57:00;6.27;47.28
76040;SHT30;64736;50.462;4.850;2023-03-01T14:59:26;6.06;47.87
76040;SHT30;64736;50.462;4.850;2023-03-01T15:01:56;5.86;48.65
76040;SHT30;64736;50.462;4.850;2023-03-01T15:04:23;5.96;48.82
76040;SHT30;64736;50.462;4.850;2023-03-01T15:06:55;5.63;49.34
76040;SHT30;64736;50.462;4.850;2023-03-01T15:09:22;6.00;48.93
76040;SHT30;64736;50.462;4.850;2023-03-01T15:11:49;5.59;49.00
76040;SHT30;64736;50.462;4.850;2023-03-01T15:16:53;5.88;49.37
76040;SHT30;64736;50.462;4.850;2023-03-01T15:19:19;5.83;49.35
76040;SHT30;64736;50.462;4.850;2023-03-01T15:21:49;5.85;49.49
76040;SHT30;64736;50.462;4.850;2023-03-01T15:24:24;5.82;48.74
76040;SHT30;64736;50.462;4.850;2023-03-01T15:29:26;5.69;49.13
76040;SHT30;64736;50.462;4.850;2023-03-01T15:32:03;5.79;49.15
76040;SHT30;64736;50.462;4.850;2023-03-01T15:34:35;5.83;49.23
76040;SHT30;64736;50.462;4.850;2023-03-01T15:37:04;5.82;49.70
76040;SHT30;64736;50.462;4.850;2023-03-01T15:39:38;5.73;49.78
76040;SHT30;64736;50.462;4.850;2023-03-01T15:44:36;5.71;50.00
76040;SHT30;64736;50.462;4.850;2023-03-01T15:47:08;5.55;50.61
76040;SHT30;64736;50.462;4.850;2023-03-01T15:49:47;5.69;50.60
76040;SHT30;64736;50.462;4.850;2023-03-01T15:55:06;5.54;51.42
76040;SHT30;64736;50.462;4.850;2023-03-01T15:57:32;5.50;51.66
76040;SHT30;64736;50.462;4.850;2023-03-01T15:59:57;5.55;51.68
76040;SHT30;64736;50.462;4.850;2023-03-01T16:02:24;5.52;51.55
76040;SHT30;64736;50.462;4.850;2023-03-01T16:04:50;5.47;51.73
76040;SHT30;64736;50.462;4.850;2023-03-01T16:07:16;5.50;51.83
76040;SHT30;64736;50.462;4.850;2023-03-01T16:09:42;5.61;52.11
76040;SHT30;64736;50.462;4.850;2023-03-01T16:12:16;5.37;52.18
76040;SHT30;64736;50.462;4.850;2023-03-01T16:14:42;5.42;52.29
76040;SHT30;64736;50.462;4.850;2023-03-01T16:17:08;5.50;52.30
76040;SHT30;64736;50.462;4.850;2023-03-01T16:19:36;5.52;51.76
76040;SHT30;64736;50.462;4.850;2023-03-01T16:22:03;5.28;51.98
76040;SHT30;64736;50.462;4.850;2023-03-01T16:24:29;5.27;52.10
76040;SHT30;64736;50.462;4.850;2023-03-01T16:26:55;5.28;52.34
76040;SHT30;64736;50.462;4.850;2023-03-01T16:29:21;5.34;52.36
76040;SHT30;64736;50.462;4.850;2023-03-01T16:31:47;5.26;52.29
76040;SHT30;64736;50.462;4.850;2023-03-01T16:34:13;5.26;52.42
76040;SHT30;64736;50.462;4.850;2023-03-01T16:36:39;5.20;52.75
76040;SHT30;64736;50.462;4.850;2023-03-01T16:39:04;5.20;52.96
76040;SHT30;64736;50.462;4.850;2023-03-01T16:41:31;5.17;52.97
76040;SHT30;64736;50.462;4.850;2023-03-01T16:43:57;5.17;53.03
76040;SHT30;64736;50.462;4.850;2023-03-01T16:46:25;5.14;52.79
76040;SHT30;64736;50.462;4.850;2023-03-01T16:48:51;5.07;53.02
76040;SHT30;64736;50.462;4.850;2023-03-01T16:51:18;5.06;52.91
76040;SHT30;64736;50.462;4.850;2023-03-01T16:53:43;4.99;53.41
76040;SHT30;64736;50.462;4.850;2023-03-01T16:56:11;5.01;52.99
76040;SHT30;64736;50.462;4.850;2023-03-01T16:58:38;4.93;53.27
76040;SHT30;64736;50.462;4.850;2023-03-01T17:03:34;4.89;53.73
76040;SHT30;64736;50.462;4.850;2023-03-01T17:06:04;4.89;53.91
76040;SHT30;64736;50.462;4.850;2023-03-01T17:08:31;4.79;54.20
76040;SHT30;64736;50.462;4.850;2023-03-01T17:11:06;4.75;54.41
76040;SHT30;64736;50.462;4.850;2023-03-01T17:13:33;4.72;54.59
76040;SHT30;64736;50.462;4.850;2023-03-01T17:16:02;4.66;54.59
76040;SHT30;64736;50.462;4.850;2023-03-01T17:18:28;4.69;54.71
76040;SHT30;64736;50.462;4.850;2023-03-01T17:20:54;4.63;54.65
76040;SHT30;64736;50.462;4.850;2023-03-01T17:23:20;4.55;55.19
76040;SHT30;64736;50.462;4.850;2023-03-01T17:25:46;4.59;54.99
76040;SHT30;64736;50.462;4.850;2023-03-01T17:28:13;4.44;55.63
76040;SHT30;64736;50.462;4.850;2023-03-01T17:30:45;4.37;55.95
76040;SHT30;64736;50.462;4.850;2023-03-01T17:33:13;4.38;55.87
76040;SHT30;64736;50.462;4.850;2023-03-01T17:35:39;4.37;56.19
76040;SHT30;64736;50.462;4.850;2023-03-01T17:38:05;4.21;56.71
76040;SHT30;64736;50.462;4.850;2023-03-01T17:40:32;4.27;56.73
76040;SHT30;64736;50.462;4.850;2023-03-01T17:43:01;4.25;56.58
76040;SHT30;64736;50.462;4.850;2023-03-01T17:45:27;4.14;56.95
76040;SHT30;64736;50.462;4.850;2023-03-01T17:47:53;4.14;57.18
76040;SHT30;64736;50.462;4.850;2023-03-01T17:50:18;4.14;57.10
76040;SHT30;64736;50.462;4.850;2023-03-01T17:52:44;4.20;56.65
76040;SHT30;64736;50.462;4.850;2023-03-01T17:55:10;4.08;56.97
76040;SHT30;64736;50.462;4.850;2023-03-01T17:57:40;4.00;57.53
76040;SHT30;64736;50.462;4.850;2023-03-01T18:00:10;3.94;57.54
76040;SHT30;64736;50.462;4.850;2023-03-01T18:02:36;3.93;57.40